Strona główna
Zdjęcia satelitarne 15-dni prognozyKlimatMeteorologia morska Cyklony Błyskawica LotniskoFAQ Gazetka O
Pogoda : Europa Afryka Ameryka Północna Ameryka Południowa Azja Australia-Oceania Inny
Języki Kontakt

Łódź, Polska

Lublinek

Szerokość geograficzna: 51-43-19N, Długość geograficzna: 019-23-53E, wysokość: 184 m


METAR: EPLL 250230Z 12007KT 9999 BKN019 M01/M04 Q1025
TAF: EPLL 242330Z 2500/2524 12010KT CAVOK BECMG 2500/2503 BKN010 BECMG 2507/2510 BKN020

czas: 04:43 (02:43 UTC)

Aktualna obserwacja pogody

Raport powstał 13 minut temu, godzina 02:30 UTC
Wiatr 7 kt od wschodnio-południowy wschód
Temperatura -1°C
Wilgotność 80%
Ciśnienie 1025 hPa
Widzialność 10 km lub więcej
Przerywane chmury na wysokości 1900 ft

Jednostka miary

Prognoza

Raport powstał 3 godziny i 13 minut temu, godzina 23:30 UTC
Prognoza ważna od 25 godzina 00 UTC do 25 godzina 24 UTC
Wiatr 10 kt od wschodnio-południowy wschód
Widzialność 10 km lub więcej
Brak chmur poniżej 1500 m i brak chmur cumulonimbus
Stopniowe zmiany
od 25 godzina 00 UTC do 25 godzina 03 UTC
Przerywane chmury na wysokości 1000 ft
Stopniowe zmiany
od 25 godzina 07 UTC do 25 godzina 10 UTC
Przerywane chmury na wysokości 2000 ft
Informacje na tej stronie internetowej podlegają klauzuli o wyłączeniu odpowiedzialności
Pogoda : Europa Afryka Ameryka Północna Ameryka Południowa Azja Australia-Oceania Inny
Zdjęcia satelitarne 15-dni prognozyKlimatMeteorologia morska Cyklony Błyskawica LotniskoFAQ Języki Kontakt Gazetka O